createdAt,value
2023-05-19T03:57:18.930Z,98.73
2023-05-19T04:00:22.922Z,98.73
2023-05-19T04:03:26.703Z,100.00
2023-05-19T04:06:28.954Z,98.31
2023-05-19T04:09:35.409Z,99.39
2023-05-19T04:12:37.540Z,98.15
2023-05-19T04:15:40.986Z,98.11
2023-05-19T04:18:46.173Z,99.83
2023-05-19T04:21:48.758Z,100.00
2023-05-19T04:24:52.278Z,100.00
2023-05-19T04:27:57.684Z,100.00
2023-05-19T04:31:00.336Z,97.73
2023-05-19T04:34:02.890Z,100.00
2023-05-19T04:37:07.049Z,100.00
2023-05-19T04:40:11.129Z,99.83
2023-05-19T04:43:13.500Z,95.82
2023-05-19T04:46:16.218Z,95.56
2023-05-19T04:49:19.391Z,94.74
2023-05-19T04:52:22.528Z,95.25
2023-05-19T04:55:26.046Z,95.22
2023-05-19T04:58:28.561Z,95.86
2023-05-19T05:01:32.912Z,95.31
2023-05-19T05:04:36.227Z,95.83
2023-05-19T05:07:39.314Z,98.17
2023-05-19T05:10:42.230Z,100.00
2023-05-19T05:13:44.781Z,100.00
2023-05-19T05:16:47.861Z,100.00
2023-05-19T05:19:51.291Z,97.95
2023-05-19T05:22:54.103Z,97.72
2023-05-19T05:25:56.804Z,93.08
2023-05-19T05:28:59.467Z,93.12
2023-05-19T05:32:01.948Z,92.26
2023-05-19T05:35:05.183Z,94.47
2023-05-19T05:38:08.118Z,96.90
2023-05-19T05:41:11.373Z,97.41
2023-05-19T05:44:13.764Z,96.11
2023-05-19T05:47:16.865Z,97.92
2023-05-19T05:50:20.342Z,92.90
2023-05-19T05:53:25.140Z,92.30
2023-05-19T05:56:28.609Z,90.47
2023-05-19T05:59:31.108Z,94.45
2023-05-19T06:02:33.372Z,93.29
2023-05-19T06:05:36.166Z,91.50
2023-05-19T06:08:38.491Z,93.35
2023-05-19T06:11:41.512Z,92.44
2023-05-19T06:14:44.908Z,93.76
2023-05-19T06:17:48.568Z,93.10
2023-05-19T06:20:50.959Z,94.01
2023-05-19T06:23:53.541Z,92.60
2023-05-19T06:26:55.802Z,91.94
2023-05-19T06:29:58.427Z,92.32
2023-05-19T06:33:00.858Z,90.36
2023-05-19T06:36:03.648Z,89.68
2023-05-19T06:39:06.374Z,88.88
2023-05-19T06:42:08.905Z,88.78
2023-05-19T06:45:15.114Z,91.28
2023-05-19T06:48:17.765Z,90.77
2023-05-19T06:51:21.789Z,94.03
2023-05-19T06:54:25.493Z,96.18
2023-05-19T06:57:27.891Z,89.89
2023-05-19T07:00:32.398Z,88.25
2023-05-19T07:03:36.316Z,89.80
2023-05-19T07:06:39.342Z,87.95
2023-05-19T07:09:41.732Z,89.07
2023-05-19T07:12:44.310Z,88.03
2023-05-19T07:15:49.035Z,90.42
2023-05-19T07:18:52.285Z,86.37
2023-05-19T07:21:55.467Z,87.72
2023-05-19T07:24:58.107Z,98.13
2023-05-19T07:28:00.610Z,88.11
2023-05-19T07:31:03.064Z,85.29
2023-05-19T07:34:05.503Z,85.81
2023-05-19T07:37:08.251Z,84.02
2023-05-19T07:40:11.775Z,80.66
2023-05-19T07:43:14.738Z,81.01
2023-05-19T07:46:17.109Z,82.97
2023-05-19T07:49:19.622Z,85.47
2023-05-19T07:52:22.101Z,81.73
2023-05-19T07:55:24.684Z,82.37
2023-05-19T07:58:26.930Z,81.71
2023-05-19T08:01:30.346Z,79.10
2023-05-19T08:04:32.933Z,83.41
2023-05-19T08:07:35.335Z,85.33
2023-05-19T08:10:37.860Z,79.22
2023-05-19T08:13:40.066Z,78.28
2023-05-19T08:16:43.857Z,80.98
2023-05-19T08:19:46.339Z,80.28
2023-05-19T08:22:48.933Z,75.92
2023-05-19T08:25:51.250Z,79.72
2023-05-19T08:28:53.876Z,79.93
2023-05-19T08:31:56.241Z,79.31
2023-05-19T08:34:58.692Z,74.19
2023-05-19T08:38:01.029Z,77.61
2023-05-19T08:41:03.839Z,77.24
2023-05-19T08:44:06.163Z,77.08
2023-05-19T08:47:13.313Z,79.54
2023-05-19T08:50:30.714Z,76.04
2023-05-19T08:53:37.850Z,77.21
2023-05-19T08:56:40.370Z,73.63
2023-05-19T08:59:43.897Z,75.62
2023-05-19T09:02:59.812Z,78.33
2023-05-19T09:06:08.965Z,76.05
2023-05-19T09:09:23.169Z,74.71
2023-05-19T09:12:26.860Z,74.01
2023-05-19T09:15:29.040Z,72.22
2023-05-19T09:18:31.825Z,74.90
2023-05-19T09:21:34.024Z,75.21
2023-05-19T09:24:37.861Z,72.87
2023-05-19T09:27:40.000Z,72.72
2023-05-19T09:30:42.460Z,73.42
2023-05-19T09:33:46.055Z,73.15
2023-05-19T09:36:53.494Z,72.77
2023-05-19T09:39:56.546Z,72.00
2023-05-19T09:42:58.963Z,76.07
2023-05-19T09:46:04.071Z,76.54
2023-05-19T09:49:09.800Z,74.68
2023-05-19T09:52:16.276Z,74.45
2023-05-19T09:55:23.004Z,72.13
2023-05-19T09:58:26.325Z,74.60
2023-05-19T10:01:32.849Z,75.87
2023-05-19T10:04:36.265Z,73.37
2023-05-19T10:07:40.407Z,74.08
2023-05-19T10:10:45.450Z,73.40
2023-05-19T10:13:50.936Z,70.91
2023-05-19T10:16:55.375Z,71.58
2023-05-19T10:19:59.326Z,72.06
2023-05-19T10:23:03.054Z,72.94
2023-05-19T10:26:06.872Z,75.58
2023-05-19T10:29:10.627Z,75.71
2023-05-19T10:32:22.674Z,72.38
2023-05-19T10:35:27.905Z,72.76
2023-05-19T10:38:48.217Z,70.34
2023-05-19T10:42:13.165Z,69.76
2023-05-19T10:45:21.432Z,67.66
2023-05-19T10:48:24.322Z,68.27
2023-05-19T10:51:33.987Z,71.87
2023-05-19T10:54:48.114Z,71.39
2023-05-19T10:58:00.379Z,69.02
2023-05-19T11:01:02.959Z,72.39
2023-05-19T11:04:13.852Z,69.21
2023-05-19T11:07:21.690Z,67.14
2023-05-19T11:10:24.657Z,67.25
2023-05-19T11:13:28.428Z,69.03
2023-05-19T11:16:34.896Z,67.83
2023-05-19T11:19:37.643Z,68.62
2023-05-19T11:22:40.010Z,67.25
2023-05-19T11:25:47.603Z,67.41
2023-05-19T11:28:50.176Z,65.32
2023-05-19T11:31:52.812Z,66.26
2023-05-19T11:34:56.138Z,66.42
2023-05-19T11:37:59.386Z,66.69
2023-05-19T11:41:03.192Z,65.81
2023-05-19T11:44:10.050Z,64.95
2023-05-19T11:47:13.681Z,64.50
2023-05-19T11:50:16.575Z,63.89
2023-05-19T11:53:21.560Z,65.01
2023-05-19T11:56:24.044Z,65.73
2023-05-19T11:59:34.946Z,63.71
2023-05-19T12:02:38.461Z,65.84
2023-05-19T12:05:46.759Z,65.23
2023-05-19T12:08:52.028Z,66.72
2023-05-19T12:11:55.163Z,67.63
2023-05-19T12:14:57.360Z,66.19
2023-05-19T12:18:03.214Z,63.96
2023-05-19T12:21:05.828Z,64.80
2023-05-19T12:24:08.892Z,63.32
2023-05-19T12:27:14.924Z,64.79
2023-05-19T12:30:17.374Z,64.20
2023-05-19T12:33:19.765Z,62.84
2023-05-19T12:36:25.170Z,62.18
2023-05-19T12:39:27.449Z,61.69
2023-05-19T12:42:34.982Z,63.46
2023-05-19T12:45:38.537Z,64.85
2023-05-19T12:48:45.556Z,65.49
2023-05-19T12:51:54.395Z,61.55
2023-05-19T12:55:07.661Z,65.32
2023-05-19T12:58:13.462Z,64.29
2023-05-19T13:01:17.911Z,65.97
2023-05-19T13:04:20.228Z,64.34
2023-05-19T13:07:22.736Z,62.90
2023-05-19T13:10:29.338Z,64.08
2023-05-19T13:13:32.331Z,63.98
2023-05-19T13:16:34.479Z,63.80
2023-05-19T13:19:36.998Z,65.34
2023-05-19T13:22:39.232Z,65.46
2023-05-19T13:25:42.300Z,64.89
2023-05-19T13:28:44.655Z,59.21
2023-05-19T13:31:47.063Z,60.74
2023-05-19T13:34:49.290Z,63.80
2023-05-19T13:37:51.771Z,61.65
2023-05-19T13:40:54.644Z,61.27
2023-05-19T13:44:01.150Z,63.48
2023-05-19T13:47:03.335Z,62.18
2023-05-19T13:50:06.472Z,62.13
2023-05-19T13:53:08.807Z,62.00
2023-05-19T13:56:11.395Z,61.78
2023-05-19T13:59:13.585Z,62.83
2023-05-19T14:02:16.232Z,65.92
2023-05-19T14:05:18.708Z,65.36
2023-05-19T14:08:20.943Z,64.15
2023-05-19T14:11:23.447Z,62.39
2023-05-19T14:14:25.817Z,61.44
2023-05-19T14:17:28.597Z,60.69
2023-05-19T14:20:31.377Z,62.92
2023-05-19T14:23:34.316Z,62.98
2023-05-19T14:26:36.575Z,61.57
2023-05-19T14:29:39.281Z,60.24
2023-05-19T14:32:41.581Z,59.68
2023-05-19T14:35:44.066Z,60.74
2023-05-19T14:38:46.390Z,59.32
2023-05-19T14:41:50.942Z,59.20
2023-05-19T14:44:53.160Z,57.77
2023-05-19T14:47:55.854Z,58.55
2023-05-19T14:50:58.057Z,57.60
2023-05-19T14:54:02.085Z,59.34
2023-05-19T14:57:04.551Z,58.46
2023-05-19T15:00:10.054Z,60.37
2023-05-19T15:03:12.272Z,59.42
2023-05-19T15:06:14.781Z,58.69
2023-05-19T15:09:16.952Z,59.47
2023-05-19T15:12:19.493Z,58.01
2023-05-19T15:15:21.706Z,58.13
2023-05-19T15:18:24.210Z,58.42
2023-05-19T15:21:26.422Z,58.68
2023-05-19T15:24:28.859Z,56.97
